createdAt,value
2018-10-09T00:01:40.574Z,95629.75
2018-10-09T00:04:08.607Z,95633.27
2018-10-09T00:06:36.683Z,95625.23
2018-10-09T00:09:06.388Z,95636.61
2018-10-09T00:11:34.693Z,95634.63
2018-10-09T00:14:03.075Z,95626.73
2018-10-09T00:16:32.168Z,95626.67
2018-10-09T00:19:00.123Z,95628.76
2018-10-09T00:21:28.476Z,95640.61
2018-10-09T00:23:56.691Z,95633.84
2018-10-09T00:26:24.707Z,95631.21
2018-10-09T00:28:52.602Z,95632.59
2018-10-09T00:31:20.447Z,95628.52
2018-10-09T00:33:48.522Z,95630.55
2018-10-09T00:36:16.534Z,95632.02
2018-10-09T00:38:46.595Z,95636.75
2018-10-09T00:41:14.746Z,95636.42
2018-10-09T00:43:42.837Z,95627.43
2018-10-09T00:46:10.853Z,95622.91
2018-10-09T00:48:38.874Z,95629.40
2018-10-09T00:51:06.964Z,95630.75
2018-10-09T00:53:35.024Z,95629.54
2018-10-09T00:56:03.115Z,95628.86
2018-10-09T00:58:31.125Z,95623.99
2018-10-09T01:00:59.133Z,95627.66
2018-10-09T01:03:27.090Z,95638.05
2018-10-09T01:05:55.145Z,95635.82
2018-10-09T01:08:23.123Z,95639.86
2018-10-09T01:10:51.085Z,95625.23
2018-10-09T01:13:19.226Z,95629.20
2018-10-09T01:15:47.120Z,95631.27
2018-10-09T01:18:15.169Z,95627.45
2018-10-09T01:20:43.123Z,95635.56
2018-10-09T01:23:11.087Z,95642.44
2018-10-09T01:25:39.262Z,95642.28
2018-10-09T01:28:07.252Z,95637.61
2018-10-09T01:30:35.795Z,95637.41
2018-10-09T01:33:03.865Z,95636.88
2018-10-09T01:35:32.081Z,95637.26
2018-10-09T01:38:00.115Z,95636.98
2018-10-09T01:40:28.043Z,95637.11
2018-10-09T01:42:56.163Z,95634.20
2018-10-09T01:45:24.197Z,95635.26
2018-10-09T01:47:52.118Z,95651.13
2018-10-09T01:50:20.110Z,95634.41
2018-10-09T01:52:48.106Z,95642.85
2018-10-09T01:55:16.168Z,95636.33
2018-10-09T01:57:44.509Z,95637.23
2018-10-09T02:00:12.575Z,95634.48
2018-10-09T02:02:40.625Z,95638.77
2018-10-09T02:05:08.801Z,95647.69
2018-10-09T02:07:36.737Z,95636.75
2018-10-09T02:10:04.985Z,95645.61
2018-10-09T02:12:32.953Z,95643.92
2018-10-09T02:15:00.884Z,95640.58
2018-10-09T02:17:29.024Z,95640.54
2018-10-09T02:19:56.936Z,95637.97
2018-10-09T02:22:24.814Z,95637.35
2018-10-09T02:24:52.783Z,95633.63
2018-10-09T02:27:21.079Z,95643.22
2018-10-09T02:29:49.050Z,95636.67
2018-10-09T02:32:17.072Z,95634.19
2018-10-09T02:34:45.090Z,95640.67
2018-10-09T02:37:13.073Z,95640.73
2018-10-09T02:39:40.973Z,95637.83
2018-10-09T02:42:08.889Z,95645.24
2018-10-09T02:44:36.847Z,95648.63
2018-10-09T02:47:04.959Z,95650.08
2018-10-09T02:49:32.940Z,95647.28
2018-10-09T02:52:01.275Z,95635.88
2018-10-09T02:54:29.322Z,95651.36
2018-10-09T02:56:57.296Z,95647.38
2018-10-09T02:59:25.348Z,95642.66
2018-10-09T03:01:53.372Z,95645.84
2018-10-09T03:04:21.463Z,95637.69
2018-10-09T03:06:49.467Z,95648.30
2018-10-09T03:09:17.550Z,95647.81
2018-10-09T03:11:45.618Z,95640.55
2018-10-09T03:14:13.587Z,95646.47
2018-10-09T03:16:41.579Z,95642.57
2018-10-09T03:19:09.508Z,95646.70
2018-10-09T03:21:38.065Z,95648.35
2018-10-09T03:24:06.399Z,95651.25
2018-10-09T03:26:34.596Z,95655.84
2018-10-09T03:29:03.047Z,95646.28
2018-10-09T03:31:31.057Z,95651.33
2018-10-09T03:33:59.015Z,95657.39
2018-10-09T03:36:27.196Z,95661.49
2018-10-09T03:38:55.076Z,95657.70
2018-10-09T03:41:22.985Z,95655.26
2018-10-09T03:43:50.965Z,95656.87
2018-10-09T03:46:18.907Z,95655.91
2018-10-09T03:48:46.877Z,95654.23
2018-10-09T03:51:15.006Z,95656.55
2018-10-09T03:53:42.948Z,95658.29
2018-10-09T03:56:10.963Z,95661.11
2018-10-09T03:58:38.980Z,95665.08
2018-10-09T04:01:06.945Z,95663.45
2018-10-09T04:03:34.907Z,95665.20
2018-10-09T04:06:02.803Z,95672.30
2018-10-09T04:08:31.486Z,95659.81
2018-10-09T04:10:59.729Z,95660.99
2018-10-09T04:13:27.765Z,95671.37
2018-10-09T04:15:55.781Z,95672.29
2018-10-09T04:18:23.688Z,95664.20
2018-10-09T04:20:51.803Z,95670.77
2018-10-09T04:23:19.897Z,95666.91
2018-10-09T04:25:47.858Z,95658.47
2018-10-09T04:28:15.789Z,95665.04
2018-10-09T04:30:43.830Z,95662.50
2018-10-09T04:33:11.746Z,95668.16
2018-10-09T04:35:40.064Z,95657.69
2018-10-09T04:38:08.253Z,95672.63
2018-10-09T04:40:37.237Z,95671.27
2018-10-09T04:43:05.782Z,95670.44
2018-10-09T04:45:34.145Z,95676.52
2018-10-09T04:48:02.032Z,95675.17
2018-10-09T04:50:30.487Z,95676.36
2018-10-09T04:52:58.417Z,95690.50
2018-10-09T04:55:26.378Z,95688.39
2018-10-09T04:57:54.297Z,95693.58
2018-10-09T05:00:22.263Z,95692.66
2018-10-09T05:02:50.891Z,95698.98
2018-10-09T05:05:18.813Z,95697.58
2018-10-09T05:07:46.747Z,95700.81
2018-10-09T05:10:14.896Z,95705.36
2018-10-09T05:12:42.875Z,95703.76
2018-10-09T05:15:10.824Z,95707.58
2018-10-09T05:17:39.065Z,95712.80
2018-10-09T05:20:08.875Z,95708.63
2018-10-09T05:22:36.876Z,95710.95
2018-10-09T05:25:04.940Z,95717.05
2018-10-09T05:27:32.938Z,95713.77
2018-10-09T05:30:00.966Z,95724.34
2018-10-09T05:32:28.929Z,95719.26
2018-10-09T05:34:56.970Z,95728.05
2018-10-09T05:37:24.908Z,95734.11
2018-10-09T05:39:52.853Z,95735.91
2018-10-09T05:42:20.921Z,95737.22
2018-10-09T05:44:48.809Z,95740.59
2018-10-09T05:47:21.665Z,95738.61
2018-10-09T05:49:49.827Z,95743.20
2018-10-09T05:52:19.097Z,95744.47
2018-10-09T05:54:47.050Z,95739.53
2018-10-09T05:57:15.218Z,95746.34
2018-10-09T05:59:43.784Z,95752.41
2018-10-09T06:02:12.016Z,95749.20
2018-10-09T06:04:40.578Z,95746.54
2018-10-09T06:07:08.616Z,95744.02
2018-10-09T06:09:36.638Z,95749.25
2018-10-09T06:12:06.400Z,95746.70
2018-10-09T06:14:34.364Z,95754.13
2018-10-09T06:17:02.338Z,95747.68
2018-10-09T06:19:30.777Z,95749.02
2018-10-09T06:21:59.025Z,95750.53
2018-10-09T06:24:27.776Z,95751.19
2018-10-09T06:26:55.793Z,95759.43
2018-10-09T06:29:23.849Z,95760.09
2018-10-09T06:31:54.377Z,95765.88
2018-10-09T06:34:22.398Z,95768.97
2018-10-09T06:36:50.671Z,95770.81
2018-10-09T06:39:18.835Z,95773.16
2018-10-09T06:41:47.981Z,95769.47
2018-10-09T06:44:15.905Z,95773.17
2018-10-09T06:46:43.913Z,95773.75
2018-10-09T06:49:11.878Z,95780.59
2018-10-09T06:51:40.874Z,95779.81
2018-10-09T06:54:09.066Z,95783.78
2018-10-09T06:56:36.946Z,95782.58
2018-10-09T06:59:06.117Z,95787.81
2018-10-09T07:01:34.657Z,95784.81
2018-10-09T07:04:02.933Z,95778.59
2018-10-09T07:06:31.317Z,95781.67
2018-10-09T07:09:12.439Z,95786.36
2018-10-09T07:11:41.075Z,95782.95
2018-10-09T07:14:09.374Z,95781.88
2018-10-09T07:16:37.414Z,95784.67
2018-10-09T07:19:05.471Z,95785.44
2018-10-09T07:21:33.742Z,95776.19
2018-10-09T07:24:03.117Z,95775.60
2018-10-09T07:26:33.778Z,95776.92
2018-10-09T07:31:15.331Z,95800.45
2018-10-09T07:33:43.373Z,95776.63
2018-10-09T07:36:11.530Z,95783.12
2018-10-09T07:38:39.519Z,95783.06
2018-10-09T07:41:08.688Z,95782.97
2018-10-09T07:43:36.862Z,95790.45
2018-10-09T07:46:04.854Z,95780.69
2018-10-09T07:48:34.098Z,95780.02
2018-10-09T07:51:03.698Z,95778.42
2018-10-09T07:53:31.703Z,95777.76
2018-10-09T07:56:00.321Z,95780.03
2018-10-09T07:58:28.372Z,95783.00
2018-10-09T08:00:56.353Z,95774.92
2018-10-09T08:03:24.305Z,95771.58
2018-10-09T08:05:52.405Z,95775.14
2018-10-09T08:08:21.337Z,95771.41
2018-10-09T08:10:49.440Z,95775.03
2018-10-09T08:13:17.409Z,95774.23
2018-10-09T08:15:46.020Z,95775.05
2018-10-09T08:18:14.108Z,95784.37
2018-10-09T08:20:42.835Z,95780.36
2018-10-09T08:23:10.787Z,95775.16
2018-10-09T08:25:39.116Z,95777.49
2018-10-09T08:28:07.230Z,95768.70
2018-10-09T08:30:35.805Z,95766.34
2018-10-09T08:33:04.000Z,95776.55
2018-10-09T08:35:32.109Z,95763.47
2018-10-09T08:38:00.149Z,95772.94
2018-10-09T08:40:28.653Z,95763.91
2018-10-09T08:42:56.873Z,95763.86
2018-10-09T08:45:25.074Z,95769.22
2018-10-09T08:47:53.067Z,95780.95
2018-10-09T08:50:22.254Z,95783.16
2018-10-09T08:52:50.367Z,95784.38
2018-10-09T08:55:18.575Z,95774.77
2018-10-09T08:57:46.926Z,95777.29
2018-10-09T09:00:15.233Z,95786.01
2018-10-09T09:02:45.761Z,95780.13
2018-10-09T09:05:16.618Z,95774.82
2018-10-09T09:07:45.751Z,95778.94
2018-10-09T09:10:15.197Z,95784.81
2018-10-09T09:12:44.109Z,95786.98
2018-10-09T09:15:13.375Z,95783.02
2018-10-09T09:17:41.824Z,95776.81
2018-10-09T09:20:10.429Z,95779.83
2018-10-09T09:22:38.507Z,95785.68
2018-10-09T09:25:06.604Z,95795.66
2018-10-09T09:27:34.986Z,95787.37
2018-10-09T09:30:03.116Z,95793.63
2018-10-09T09:32:31.090Z,95787.25
2018-10-09T09:34:59.050Z,95788.36
2018-10-09T09:37:27.511Z,95786.39
2018-10-09T09:39:55.551Z,95782.98
2018-10-09T09:42:23.642Z,95775.73
2018-10-09T09:44:51.771Z,95779.60
2018-10-09T09:47:19.823Z,95782.70
2018-10-09T09:49:47.872Z,95782.20
2018-10-09T09:52:16.030Z,95775.67
2018-10-09T09:54:43.934Z,95790.22
2018-10-09T09:57:12.119Z,95780.56
2018-10-09T09:59:40.248Z,95778.47
2018-10-09T10:02:08.543Z,95773.39
2018-10-09T10:04:36.663Z,95775.20
2018-10-09T10:07:04.772Z,95775.94
2018-10-09T10:09:32.822Z,95772.60
2018-10-09T10:12:04.807Z,95774.48
2018-10-09T10:14:36.091Z,95772.74
2018-10-09T10:17:04.347Z,95771.09
2018-10-09T10:19:33.691Z,95767.71
2018-10-09T10:22:01.789Z,95761.09
2018-10-09T10:24:29.989Z,95760.33
2018-10-09T10:26:58.063Z,95755.30
2018-10-09T10:29:29.382Z,95757.42
2018-10-09T10:31:57.337Z,95759.46
2018-10-09T10:34:25.475Z,95765.10
2018-10-09T10:36:53.962Z,95758.12
2018-10-09T10:39:22.182Z,95754.28
2018-10-09T10:41:50.318Z,95745.10
2018-10-09T10:44:20.566Z,95752.87
2018-10-09T10:46:50.756Z,95748.44
2018-10-09T10:49:20.907Z,95750.33
2018-10-09T10:51:50.837Z,95737.98
2018-10-09T10:54:19.095Z,95738.58
2018-10-09T10:56:50.411Z,95741.57
2018-10-09T10:59:27.007Z,95739.62
2018-10-09T11:01:55.146Z,95737.34
2018-10-09T11:04:23.091Z,95737.40
2018-10-09T11:06:52.449Z,95735.17
2018-10-09T11:09:20.814Z,95734.59
2018-10-09T11:11:49.805Z,95732.20
2018-10-09T11:14:18.021Z,95720.42
2018-10-09T11:16:46.410Z,95724.07
2018-10-09T11:19:14.771Z,95722.14
2018-10-09T11:21:50.674Z,95721.89
2018-10-09T11:27:14.242Z,95725.25
2018-10-09T11:29:45.152Z,95729.66
2018-10-09T11:32:14.182Z,95726.59
2018-10-09T11:34:43.664Z,95737.89
2018-10-09T11:37:11.930Z,95736.75
2018-10-09T11:39:50.111Z,95728.34
2018-10-09T11:42:19.295Z,95721.84
2018-10-09T11:45:02.741Z,95726.91
2018-10-09T11:47:32.103Z,95721.78
2018-10-09T11:50:04.398Z,95727.42
2018-10-09T11:52:35.446Z,95729.59
2018-10-09T11:55:04.950Z,95734.63
2018-10-09T11:57:34.431Z,95724.55
2018-10-09T12:00:05.116Z,95726.51
2018-10-09T12:02:40.310Z,95714.73
2018-10-09T12:05:09.784Z,95707.08
2018-10-09T12:07:38.621Z,95712.20
2018-10-09T12:10:13.704Z,95714.58
2018-10-09T12:12:43.813Z,95711.98
2018-10-09T12:15:13.546Z,95710.87
2018-10-09T12:17:44.402Z,95717.66
2018-10-09T12:20:13.794Z,95711.13
2018-10-09T12:25:18.746Z,95715.09
2018-10-09T12:27:47.627Z,95722.42
2018-10-09T12:30:16.467Z,95706.55
2018-10-09T12:32:46.749Z,95717.23
2018-10-09T12:35:15.237Z,95718.85
2018-10-09T12:37:43.612Z,95710.16
2018-10-09T12:40:12.094Z,95713.56
2018-10-09T12:42:41.868Z,95714.48
2018-10-09T12:45:14.507Z,95715.44
2018-10-09T12:47:45.100Z,95714.08
2018-10-09T12:50:15.739Z,95716.78
2018-10-09T12:52:43.934Z,95720.10
2018-10-09T12:55:16.027Z,95720.72
2018-10-09T12:57:44.528Z,95716.75
2018-10-09T13:00:12.555Z,95714.22
2018-10-09T13:02:42.907Z,95717.14
2018-10-09T13:05:12.210Z,95714.27
2018-10-09T13:07:41.870Z,95717.60
2018-10-09T13:10:10.275Z,95718.15
2018-10-09T13:12:42.859Z,95705.45
2018-10-09T13:15:13.703Z,95712.50
2018-10-09T13:17:42.732Z,95706.03
2018-10-09T13:20:30.751Z,95701.30
2018-10-09T13:22:59.521Z,95701.22
2018-10-09T13:25:33.800Z,95707.99
2018-10-09T13:28:02.873Z,95701.89
2018-10-09T13:30:35.191Z,95714.16
2018-10-09T13:33:04.351Z,95699.30
2018-10-09T13:35:41.543Z,95704.67
2018-10-09T13:38:11.840Z,95691.55
2018-10-09T13:40:41.202Z,95696.38
2018-10-09T13:43:11.585Z,95699.94
2018-10-09T13:45:43.367Z,95694.53
2018-10-09T13:48:19.150Z,95691.67
2018-10-09T13:50:47.364Z,95700.03
2018-10-09T13:53:16.504Z,95696.70
2018-10-09T13:55:44.909Z,95708.20
2018-10-09T13:58:14.172Z,95699.58
2018-10-09T14:00:44.641Z,95700.58
2018-10-09T14:03:12.650Z,95691.06
2018-10-09T14:05:53.339Z,95698.91
2018-10-09T14:08:21.542Z,95701.38
2018-10-09T14:10:53.383Z,95695.67
2018-10-09T14:13:21.538Z,95687.66
2018-10-09T14:15:50.480Z,95696.56
2018-10-09T14:18:18.988Z,95702.87
2018-10-09T14:20:48.104Z,95703.30
2018-10-09T14:23:16.595Z,95703.53
2018-10-09T14:25:46.452Z,95696.23
2018-10-09T14:28:41.345Z,95704.72
2018-10-09T14:31:11.843Z,95711.86
2018-10-09T14:33:41.615Z,95705.88
2018-10-09T14:36:12.175Z,95709.05
2018-10-09T14:38:40.256Z,95712.63
2018-10-09T14:41:08.775Z,95708.23
2018-10-09T14:43:37.812Z,95707.05
2018-10-09T14:46:07.503Z,95710.02
2018-10-09T14:48:40.797Z,95709.41
2018-10-09T14:51:09.318Z,95711.78
2018-10-09T14:53:37.930Z,95705.20
2018-10-09T14:56:07.991Z,95705.90
2018-10-09T14:58:36.883Z,95708.84
2018-10-09T15:01:07.807Z,95704.92
2018-10-09T15:03:35.892Z,95708.05
2018-10-09T15:06:04.699Z,95700.75
2018-10-09T15:08:32.798Z,95707.42
2018-10-09T15:11:02.458Z,95704.16
2018-10-09T15:13:42.837Z,95699.63
2018-10-09T15:16:11.729Z,95712.40
2018-10-09T15:18:40.679Z,95715.69
2018-10-09T15:21:12.021Z,95715.98
2018-10-09T15:23:40.337Z,95711.28
2018-10-09T15:26:09.778Z,95712.41
2018-10-09T15:28:42.812Z,95720.78
2018-10-09T15:31:10.972Z,95720.08
2018-10-09T15:33:49.887Z,95719.06
2018-10-09T15:36:19.092Z,95726.93
2018-10-09T15:39:08.721Z,95738.30
2018-10-09T15:41:36.965Z,95738.99
2018-10-09T15:44:05.841Z,95730.51
2018-10-09T15:46:34.112Z,95732.27
2018-10-09T15:49:02.242Z,95731.17
2018-10-09T15:51:33.259Z,95734.77
2018-10-09T15:54:03.979Z,95735.35
2018-10-09T15:56:48.357Z,95739.42
2018-10-09T15:59:17.467Z,95741.91
2018-10-09T16:01:50.953Z,95746.61
2018-10-09T16:04:23.219Z,95745.20
2018-10-09T16:06:52.032Z,95755.88
2018-10-09T16:09:23.839Z,95754.66
2018-10-09T16:11:54.044Z,95758.53
2018-10-09T16:14:23.228Z,95751.84
2018-10-09T16:16:55.818Z,95755.61
2018-10-09T16:19:24.053Z,95754.48
2018-10-09T16:21:52.216Z,95756.08
2018-10-09T16:24:20.154Z,95762.55
2018-10-09T16:26:49.549Z,95758.71
2018-10-09T16:29:17.679Z,95757.88
2018-10-09T16:31:45.938Z,95764.89
2018-10-09T16:34:17.105Z,95764.06
2018-10-09T16:36:46.573Z,95769.91
2018-10-09T16:39:18.785Z,95776.53
2018-10-09T16:41:48.851Z,95776.00
2018-10-09T16:44:24.651Z,95771.91
2018-10-09T16:46:53.189Z,95781.06
2018-10-09T16:49:27.939Z,95786.42
2018-10-09T16:51:58.102Z,95783.97
2018-10-09T16:54:26.240Z,95782.41
2018-10-09T16:56:54.200Z,95794.43
2018-10-09T16:59:23.152Z,95792.30
2018-10-09T17:01:51.305Z,95793.09
2018-10-09T17:04:33.176Z,95789.80
2018-10-09T17:07:02.015Z,95784.69
2018-10-09T17:09:30.368Z,95792.50
2018-10-09T17:11:58.990Z,95795.84
2018-10-09T17:14:28.271Z,95794.15
2018-10-09T17:16:59.807Z,95802.89
2018-10-09T17:19:27.836Z,95800.11
2018-10-09T17:22:00.076Z,95800.28
2018-10-09T17:24:28.855Z,95804.47
2018-10-09T17:27:00.759Z,95805.12
2018-10-09T17:29:28.748Z,95812.42
2018-10-09T17:32:02.338Z,95811.36
2018-10-09T17:34:30.568Z,95807.20
2018-10-09T17:37:11.529Z,95811.88
2018-10-09T17:39:39.696Z,95811.19
2018-10-09T17:42:08.128Z,95821.84
2018-10-09T17:44:36.307Z,95816.58
2018-10-09T17:47:09.811Z,95821.02
2018-10-09T17:49:39.525Z,95823.60
2018-10-09T17:52:10.838Z,95835.86
2018-10-09T17:54:45.833Z,95829.91
2018-10-09T17:57:14.149Z,95834.81
2018-10-09T17:59:42.926Z,95837.98
2018-10-09T18:02:11.921Z,95834.39
2018-10-09T18:04:43.623Z,95837.70
2018-10-09T18:07:12.787Z,95850.60
2018-10-09T18:09:40.925Z,95849.09
2018-10-09T18:12:10.347Z,95850.29
2018-10-09T18:14:45.034Z,95853.48
2018-10-09T18:17:13.167Z,95843.98
2018-10-09T18:19:41.232Z,95853.05
2018-10-09T18:22:10.661Z,95852.91
2018-10-09T18:24:39.643Z,95859.41
2018-10-09T18:27:09.329Z,95858.03
2018-10-09T18:29:38.119Z,95858.78
2018-10-09T18:32:08.069Z,95862.87
2018-10-09T18:34:38.788Z,95863.14
2018-10-09T18:37:08.030Z,95867.30
2018-10-09T18:39:36.586Z,95866.34
2018-10-09T18:42:04.949Z,95877.42
2018-10-09T18:44:35.743Z,95864.98
2018-10-09T18:47:08.676Z,95874.81
2018-10-09T18:49:51.702Z,95871.02
2018-10-09T18:52:20.143Z,95238.72
2018-10-09T18:54:51.130Z,95882.16
2018-10-09T18:57:19.235Z,95883.34
2018-10-09T18:59:48.071Z,95884.39
2018-10-09T19:02:17.584Z,95886.66
2018-10-09T19:04:45.737Z,95688.39
2018-10-09T19:07:14.307Z,95885.42
2018-10-09T19:09:43.029Z,95884.68
2018-10-09T19:12:11.627Z,95896.18
2018-10-09T19:14:40.035Z,95892.57
2018-10-09T19:17:10.536Z,95895.68
2018-10-09T19:19:39.559Z,95890.69
2018-10-09T19:22:10.901Z,95889.95
2018-10-09T19:24:42.487Z,95895.20
2018-10-09T19:27:10.987Z,95907.37
2018-10-09T19:29:39.001Z,95899.84
2018-10-09T19:32:07.202Z,95904.84
2018-10-09T19:34:49.112Z,95903.19
2018-10-09T19:37:19.679Z,95903.30
2018-10-09T19:39:48.200Z,95909.36
2018-10-09T19:42:17.536Z,95917.16
2018-10-09T19:44:45.587Z,95909.03
2018-10-09T19:47:13.971Z,95917.92
2018-10-09T19:49:43.540Z,95922.92
2018-10-09T19:52:12.744Z,95925.05
2018-10-09T19:57:18.612Z,95930.27
2018-10-09T19:59:46.966Z,95929.97
2018-10-09T20:02:15.297Z,95937.86
2018-10-09T20:04:44.592Z,95933.56
2018-10-09T20:07:12.848Z,95935.98
2018-10-09T20:09:40.870Z,95934.70
2018-10-09T20:12:11.078Z,95932.94
2018-10-09T20:14:40.463Z,95930.72
2018-10-09T20:17:09.475Z,95936.64
2018-10-09T20:19:39.807Z,95931.80
2018-10-09T20:22:09.528Z,95933.86
2018-10-09T20:24:43.222Z,95931.84
2018-10-09T20:27:11.753Z,95928.69
2018-10-09T20:29:39.914Z,95943.17
2018-10-09T20:32:09.454Z,95929.34
2018-10-09T20:34:40.311Z,95937.94
2018-10-09T20:37:12.680Z,95941.93
2018-10-09T20:39:40.813Z,95939.73
2018-10-09T20:42:10.159Z,95944.68
2018-10-09T20:44:38.217Z,95939.25
2018-10-09T20:47:06.602Z,95942.38
2018-10-09T20:49:34.872Z,95938.37
2018-10-09T20:52:05.839Z,95935.77
2018-10-09T20:54:33.825Z,95942.31
2018-10-09T20:57:02.322Z,95943.20
2018-10-09T20:59:31.052Z,95948.25
2018-10-09T21:02:09.919Z,95946.17
2018-10-09T21:04:39.499Z,95946.04
2018-10-09T21:07:09.170Z,95952.20
2018-10-09T21:09:39.399Z,95950.25
2018-10-09T21:12:08.576Z,95956.02
2018-10-09T21:14:40.522Z,95955.62
2018-10-09T21:17:09.907Z,95956.48
2018-10-09T21:19:37.991Z,95950.50
2018-10-09T21:22:06.032Z,95947.22
2018-10-09T21:24:35.099Z,95953.58
2018-10-09T21:27:05.254Z,95955.98
2018-10-09T21:29:34.319Z,95951.69
2018-10-09T21:32:07.434Z,95960.50
2018-10-09T21:34:35.685Z,95960.31
2018-10-09T21:37:03.770Z,95959.52
2018-10-09T21:39:35.768Z,95957.31
2018-10-09T21:42:06.256Z,95957.16
2018-10-09T21:44:34.459Z,95965.06
2018-10-09T21:47:03.534Z,95964.56
2018-10-09T21:49:31.722Z,95966.89
2018-10-09T21:52:02.592Z,95967.38
2018-10-09T21:54:31.523Z,95966.44
2018-10-09T21:56:59.646Z,95960.19
2018-10-09T21:59:29.824Z,95965.69
2018-10-09T22:02:01.222Z,95966.20
2018-10-09T22:04:37.374Z,95967.30
2018-10-09T22:07:06.098Z,95966.73
2018-10-09T22:09:36.166Z,95962.18
2018-10-09T22:12:05.751Z,95971.39
2018-10-09T22:14:36.360Z,95959.00
2018-10-09T22:17:05.128Z,95963.09
2018-10-09T22:19:36.166Z,95951.95
2018-10-09T22:22:05.627Z,95957.45
2018-10-09T22:24:33.887Z,95949.80
2018-10-09T22:27:03.966Z,95955.09
2018-10-09T22:29:34.090Z,95950.20
2018-10-09T22:32:03.982Z,95954.72
2018-10-09T22:34:32.778Z,95949.92
2018-10-09T22:37:00.979Z,95949.23
2018-10-09T22:39:30.644Z,95953.80
2018-10-09T22:41:59.843Z,95945.47
2018-10-09T22:44:32.744Z,95942.96
2018-10-09T22:47:00.939Z,95946.31
2018-10-09T22:49:28.996Z,95956.77
2018-10-09T22:51:57.191Z,95949.84
2018-10-09T22:54:26.675Z,95946.50
2018-10-09T22:56:54.978Z,95955.14
2018-10-09T22:59:23.030Z,95955.53
2018-10-09T23:01:50.995Z,95558.66
2018-10-09T23:04:19.318Z,95948.88
2018-10-09T23:06:47.911Z,95950.54
2018-10-09T23:09:15.946Z,95955.80
2018-10-09T23:11:44.011Z,95955.56
2018-10-09T23:14:13.412Z,95953.70
2018-10-09T23:16:42.679Z,95954.63
2018-10-09T23:19:13.491Z,95959.63
2018-10-09T23:21:42.539Z,95959.55
2018-10-09T23:24:10.496Z,95949.75
2018-10-09T23:26:40.073Z,95962.33
2018-10-09T23:29:08.188Z,95955.73
2018-10-09T23:31:36.219Z,95954.99
2018-10-09T23:34:05.628Z,95950.70
2018-10-09T23:36:33.824Z,95959.13
2018-10-09T23:39:05.510Z,95956.94
2018-10-09T23:41:35.164Z,95958.80
2018-10-09T23:44:03.849Z,95955.27
2018-10-09T23:46:34.210Z,95951.69
2018-10-09T23:49:02.374Z,95949.81
2018-10-09T23:51:30.416Z,95955.27
2018-10-09T23:54:00.020Z,95952.88
2018-10-09T23:56:28.135Z,95945.13
2018-10-09T23:58:58.151Z,95945.44
